createdAt,value
2018-03-14T00:01:26.476Z,10.76
2018-03-14T00:03:54.902Z,10.90
2018-03-14T00:06:23.679Z,10.94
2018-03-14T00:08:52.057Z,10.84
2018-03-14T00:11:20.444Z,10.84
2018-03-14T00:13:48.819Z,10.75
2018-03-14T00:16:17.700Z,10.99
2018-03-14T00:18:46.069Z,10.66
2018-03-14T00:21:14.440Z,10.66
2018-03-14T00:23:42.826Z,10.73
2018-03-14T00:26:11.206Z,10.81
2018-03-14T00:28:39.575Z,10.86
2018-03-14T00:31:07.948Z,10.81
2018-03-14T00:33:36.324Z,10.92
2018-03-14T00:36:04.704Z,11.02
2018-03-14T00:38:33.124Z,10.81
2018-03-14T00:41:01.515Z,10.95
2018-03-14T00:43:30.303Z,10.69
2018-03-14T00:45:58.687Z,10.91
2018-03-14T00:48:27.456Z,11.16
2018-03-14T00:50:55.832Z,10.52
2018-03-14T00:53:24.199Z,10.68
2018-03-14T00:55:52.675Z,10.89
2018-03-14T00:58:21.059Z,10.76
2018-03-14T01:00:49.443Z,10.90
2018-03-14T01:03:17.820Z,10.93
2018-03-14T01:05:46.311Z,10.71
2018-03-14T01:08:14.679Z,10.97
2018-03-14T01:10:43.070Z,10.96
2018-03-14T01:13:11.472Z,11.08
2018-03-14T01:15:40.252Z,11.04
2018-03-14T01:18:09.117Z,10.89
2018-03-14T01:20:37.547Z,10.82
2018-03-14T01:23:06.044Z,10.30
2018-03-14T01:25:34.555Z,10.87
2018-03-14T01:28:02.936Z,10.45
2018-03-14T01:30:31.317Z,10.64
2018-03-14T01:32:59.795Z,10.72
2018-03-14T01:35:28.177Z,10.48
2018-03-14T01:37:56.600Z,10.71
2018-03-14T01:40:25.003Z,10.88
2018-03-14T01:42:53.407Z,10.80
2018-03-14T01:45:21.894Z,10.40
2018-03-14T01:47:50.356Z,10.35
2018-03-14T01:50:18.732Z,10.29
2018-03-14T01:52:47.100Z,10.11
2018-03-14T01:55:15.493Z,10.17
2018-03-14T01:57:43.896Z,10.22
2018-03-14T02:00:12.372Z,10.50
2018-03-14T02:02:40.739Z,10.52
2018-03-14T02:05:09.131Z,10.37
2018-03-14T02:07:37.507Z,10.32
2018-03-14T02:10:05.986Z,10.66
2018-03-14T02:12:34.368Z,10.69
2018-03-14T02:15:02.847Z,10.86
2018-03-14T02:17:31.228Z,10.47
2018-03-14T02:19:59.605Z,10.39
2018-03-14T02:22:27.995Z,10.68
2018-03-14T02:24:56.365Z,10.72
2018-03-14T02:27:24.747Z,10.73
2018-03-14T02:29:53.228Z,10.47
2018-03-14T02:32:21.610Z,10.17
2018-03-14T02:34:49.988Z,10.36
2018-03-14T02:37:18.351Z,10.23
2018-03-14T02:39:46.719Z,10.23
2018-03-14T02:42:15.094Z,10.14
2018-03-14T02:44:43.475Z,10.34
2018-03-14T02:47:11.892Z,10.38
2018-03-14T02:49:40.256Z,10.33
2018-03-14T02:52:08.652Z,10.32
2018-03-14T02:54:37.028Z,10.34
2018-03-14T02:57:05.395Z,10.30
2018-03-14T02:59:33.750Z,10.23
2018-03-14T03:02:02.107Z,10.34
2018-03-14T03:04:30.521Z,10.33
2018-03-14T03:06:59.004Z,10.20
2018-03-14T03:09:27.368Z,10.05
2018-03-14T03:11:55.879Z,10.47
2018-03-14T03:14:24.240Z,10.65
2018-03-14T03:16:52.616Z,10.59
2018-03-14T03:19:20.974Z,10.72
2018-03-14T03:21:49.379Z,10.68
2018-03-14T03:24:17.730Z,10.44
2018-03-14T03:26:46.133Z,10.45
2018-03-14T03:29:14.520Z,10.50
2018-03-14T03:31:42.977Z,10.54
2018-03-14T03:34:11.381Z,10.63
2018-03-14T03:36:39.769Z,10.77
2018-03-14T03:39:08.131Z,10.51
2018-03-14T03:41:36.509Z,10.71
2018-03-14T03:44:04.878Z,10.92
2018-03-14T03:46:33.276Z,10.93
2018-03-14T03:49:01.650Z,10.72
2018-03-14T03:51:30.020Z,10.84
2018-03-14T03:53:59.091Z,10.96
2018-03-14T03:56:27.447Z,10.72
2018-03-14T03:58:56.370Z,10.84
2018-03-14T04:01:24.773Z,11.05
2018-03-14T04:03:53.115Z,10.91
2018-03-14T04:06:21.476Z,10.55
2018-03-14T04:08:50.215Z,10.69
2018-03-14T04:11:18.588Z,10.88
2018-03-14T04:13:47.370Z,10.97
2018-03-14T04:16:15.770Z,10.82
2018-03-14T04:18:44.120Z,10.73
2018-03-14T04:21:12.480Z,10.82
2018-03-14T04:23:40.966Z,10.59
2018-03-14T04:26:09.380Z,10.49
2018-03-14T04:28:37.731Z,10.41
2018-03-14T04:31:06.214Z,10.64
2018-03-14T04:33:34.573Z,10.53
2018-03-14T04:36:03.340Z,10.43
2018-03-14T04:38:31.688Z,10.34
2018-03-14T04:41:00.066Z,10.50
2018-03-14T04:43:28.419Z,10.37
2018-03-14T04:45:56.829Z,10.60
2018-03-14T04:48:25.211Z,10.56
2018-03-14T04:50:53.569Z,10.84
2018-03-14T04:53:22.024Z,10.59
2018-03-14T04:55:50.469Z,10.45
2018-03-14T04:58:18.928Z,10.85
2018-03-14T05:00:47.400Z,11.04
2018-03-14T05:03:15.792Z,11.02
2018-03-14T05:05:44.338Z,11.03
2018-03-14T05:08:12.763Z,10.70
2018-03-14T05:10:41.148Z,10.58
2018-03-14T05:13:09.597Z,10.53
2018-03-14T05:15:37.988Z,10.59
2018-03-14T05:18:06.333Z,10.70
2018-03-14T05:20:34.687Z,10.91
2018-03-14T05:23:03.522Z,10.89
2018-03-14T05:25:31.883Z,10.47
2018-03-14T05:28:00.232Z,10.42
2018-03-14T05:30:29.003Z,10.59
2018-03-14T05:32:57.447Z,10.46
2018-03-14T05:35:25.885Z,10.53
2018-03-14T05:37:54.640Z,10.53
2018-03-14T05:40:23.011Z,10.36
2018-03-14T05:42:51.386Z,10.52
2018-03-14T05:45:19.763Z,10.54
2018-03-14T05:47:48.196Z,10.55
2018-03-14T05:50:16.561Z,10.33
2018-03-14T05:52:45.332Z,10.27
2018-03-14T05:55:14.143Z,10.14
2018-03-14T05:57:42.563Z,10.37
2018-03-14T06:00:10.935Z,10.47
2018-03-14T06:02:39.526Z,10.30
2018-03-14T06:05:07.893Z,10.12
2018-03-14T06:07:36.299Z,10.33
2018-03-14T06:10:04.678Z,10.21
2018-03-14T06:12:33.057Z,10.21
2018-03-14T06:15:01.425Z,10.51
2018-03-14T06:17:29.788Z,10.13
2018-03-14T06:19:58.187Z,10.38
2018-03-14T06:22:26.543Z,10.39
2018-03-14T06:24:54.978Z,10.42
2018-03-14T06:27:23.318Z,10.28
2018-03-14T06:29:51.691Z,10.22
2018-03-14T06:32:20.050Z,10.57
2018-03-14T06:34:48.459Z,10.49
2018-03-14T06:37:16.840Z,10.80
2018-03-14T06:39:45.290Z,10.54
2018-03-14T06:42:13.749Z,10.60
2018-03-14T06:44:42.606Z,10.57
2018-03-14T06:47:11.089Z,10.49
2018-03-14T06:49:39.438Z,10.70
2018-03-14T06:52:07.815Z,10.27
2018-03-14T06:54:36.168Z,10.49
2018-03-14T06:57:04.535Z,10.52
2018-03-14T06:59:51.144Z,10.72
2018-03-14T07:02:37.792Z,10.54
2018-03-14T07:05:23.959Z,10.37
2018-03-14T07:07:52.452Z,10.46
2018-03-14T07:10:20.832Z,10.45
2018-03-14T07:12:49.263Z,10.84
2018-03-14T07:15:17.623Z,10.70
2018-03-14T07:17:46.614Z,10.87
2018-03-14T07:20:14.995Z,10.88
2018-03-14T07:22:43.386Z,10.73
2018-03-14T07:25:11.829Z,10.82
2018-03-14T07:27:40.222Z,10.91
2018-03-14T07:30:08.596Z,10.90
2018-03-14T07:32:36.970Z,10.42
2018-03-14T07:35:05.456Z,10.77
2018-03-14T07:37:33.817Z,10.72
2018-03-14T07:40:02.241Z,10.58
2018-03-14T07:42:30.617Z,10.84
2018-03-14T07:44:58.983Z,10.74
2018-03-14T07:47:27.348Z,10.56
2018-03-14T07:49:55.727Z,10.58
2018-03-14T07:52:24.097Z,10.52
2018-03-14T07:54:52.451Z,10.70
2018-03-14T07:57:21.243Z,10.49
2018-03-14T07:59:49.612Z,10.47
2018-03-14T08:02:19.182Z,9.94
2018-03-14T08:04:47.544Z,10.26
2018-03-14T08:07:15.933Z,10.35
2018-03-14T08:09:44.284Z,10.27
2018-03-14T08:12:12.679Z,10.56
2018-03-14T08:14:41.102Z,10.61
2018-03-14T08:17:09.864Z,10.86
2018-03-14T08:19:38.332Z,10.93
2018-03-14T08:22:06.718Z,10.79
2018-03-14T08:24:35.076Z,10.95
2018-03-14T08:27:03.464Z,10.85
2018-03-14T08:29:31.833Z,11.11
2018-03-14T08:32:00.192Z,11.19
2018-03-14T08:34:28.682Z,11.32
2018-03-14T08:36:57.011Z,11.55
2018-03-14T08:39:25.779Z,11.80
2018-03-14T08:41:54.180Z,11.28
2018-03-14T08:44:22.545Z,11.30
2018-03-14T08:46:50.987Z,10.89
2018-03-14T08:49:19.724Z,10.57
2018-03-14T08:51:48.099Z,10.80
2018-03-14T08:54:16.466Z,10.90
2018-03-14T08:56:44.861Z,10.80
2018-03-14T08:59:13.639Z,10.93
2018-03-14T09:01:42.243Z,11.60
2018-03-14T09:04:11.008Z,11.65
2018-03-14T09:06:39.388Z,11.84
2018-03-14T09:09:07.745Z,11.94
2018-03-14T09:11:36.114Z,11.74
2018-03-14T09:14:04.479Z,11.71
2018-03-14T09:16:32.850Z,11.82
2018-03-14T09:19:01.200Z,11.85
2018-03-14T09:21:29.579Z,11.89
2018-03-14T09:23:57.940Z,12.00
2018-03-14T09:26:26.308Z,12.14
2018-03-14T09:28:54.684Z,11.97
2018-03-14T09:31:23.052Z,12.30
2018-03-14T09:33:51.412Z,12.82
2018-03-14T09:36:19.823Z,13.24
2018-03-14T09:38:48.225Z,13.55
2018-03-14T09:41:16.596Z,13.48
2018-03-14T09:43:44.955Z,13.78
2018-03-14T09:46:13.339Z,13.89
2018-03-14T09:48:41.702Z,14.11
2018-03-14T09:51:10.084Z,14.30
2018-03-14T09:53:38.436Z,13.67
2018-03-14T09:56:06.826Z,13.60
2018-03-14T09:58:35.191Z,13.60
2018-03-14T10:01:03.567Z,13.92
2018-03-14T10:03:31.936Z,14.37
2018-03-14T10:06:00.324Z,14.24
2018-03-14T10:08:28.736Z,14.10
2018-03-14T10:10:57.120Z,13.83
2018-03-14T10:13:25.478Z,14.05
2018-03-14T10:15:53.871Z,14.27
2018-03-14T10:18:22.253Z,14.02
2018-03-14T10:20:50.616Z,13.72
2018-03-14T10:23:18.981Z,13.64
2018-03-14T10:25:47.448Z,13.26
2018-03-14T10:28:15.744Z,12.76
2018-03-14T10:30:44.111Z,12.64
2018-03-14T10:33:12.466Z,12.71
2018-03-14T10:35:41.232Z,12.62
2018-03-14T10:38:09.605Z,12.59
2018-03-14T10:40:37.979Z,12.76
2018-03-14T10:43:06.346Z,12.57
2018-03-14T10:45:34.707Z,12.38
2018-03-14T10:48:03.728Z,12.21
2018-03-14T10:50:32.125Z,12.10
2018-03-14T10:53:00.491Z,12.40
2018-03-14T10:55:28.872Z,12.26
2018-03-14T10:57:57.241Z,12.27
2018-03-14T11:00:27.264Z,12.36
2018-03-14T11:03:01.238Z,11.93
2018-03-14T11:05:29.612Z,12.02
2018-03-14T11:07:57.991Z,12.19
2018-03-14T11:10:26.442Z,12.04
2018-03-14T11:12:55.195Z,12.41
2018-03-14T11:15:23.547Z,12.43
2018-03-14T11:17:51.922Z,12.27
2018-03-14T11:20:20.324Z,12.45
2018-03-14T11:22:48.672Z,12.36
2018-03-14T11:25:17.045Z,12.14
2018-03-14T11:27:45.432Z,12.02
2018-03-14T11:30:14.006Z,11.97
2018-03-14T11:32:42.186Z,12.14
2018-03-14T11:35:10.608Z,11.89
2018-03-14T11:37:38.940Z,12.24
2018-03-14T11:40:07.328Z,11.81
2018-03-14T11:42:35.695Z,12.08
2018-03-14T11:45:04.054Z,12.29
2018-03-14T11:47:32.434Z,12.39
2018-03-14T11:50:01.202Z,12.11
2018-03-14T11:52:29.551Z,12.19
2018-03-14T11:54:57.924Z,12.19
2018-03-14T11:57:26.298Z,12.30
2018-03-14T11:59:54.656Z,12.45
2018-03-14T12:02:23.040Z,12.24
2018-03-14T12:04:51.416Z,12.61
2018-03-14T12:07:19.768Z,12.67
2018-03-14T12:09:48.315Z,12.67
2018-03-14T12:12:16.706Z,12.78
2018-03-14T12:14:45.065Z,12.68
2018-03-14T12:17:13.444Z,12.70
2018-03-14T12:19:41.807Z,13.13
2018-03-14T12:22:15.843Z,13.07
2018-03-14T12:24:44.194Z,13.23
2018-03-14T12:27:12.721Z,13.23
2018-03-14T12:29:41.095Z,13.35
2018-03-14T12:32:09.450Z,13.10
2018-03-14T12:34:37.815Z,12.92
2018-03-14T12:37:06.190Z,12.74
2018-03-14T12:39:34.565Z,12.97
2018-03-14T12:42:02.942Z,12.65
2018-03-14T12:44:31.329Z,12.78
2018-03-14T12:46:59.728Z,12.64
2018-03-14T12:49:28.093Z,12.73
2018-03-14T12:51:56.463Z,12.68
2018-03-14T12:54:24.823Z,12.69
2018-03-14T12:56:53.667Z,12.03
2018-03-14T12:59:22.031Z,12.39
2018-03-14T13:01:50.413Z,12.51
2018-03-14T13:04:18.780Z,12.75
2018-03-14T13:06:47.139Z,12.82
2018-03-14T13:09:15.560Z,13.09
2018-03-14T13:11:43.968Z,13.35
2018-03-14T13:14:12.323Z,13.06
2018-03-14T13:16:40.694Z,13.19
2018-03-14T13:19:09.062Z,12.91
2018-03-14T13:21:37.442Z,12.97
2018-03-14T13:24:05.811Z,13.30
2018-03-14T13:26:34.228Z,13.02
2018-03-14T13:29:02.583Z,13.04
2018-03-14T13:31:30.972Z,13.12
2018-03-14T13:33:59.450Z,13.22
2018-03-14T13:36:27.815Z,13.31
2018-03-14T13:38:56.177Z,13.44
2018-03-14T13:41:24.602Z,13.38
2018-03-14T13:43:52.955Z,12.90
2018-03-14T13:46:21.319Z,12.96
2018-03-14T13:48:49.689Z,13.15
2018-03-14T13:51:18.048Z,12.93
2018-03-14T13:53:46.416Z,12.80
2018-03-14T13:56:15.172Z,12.64
2018-03-14T13:58:43.564Z,12.35
2018-03-14T14:01:12.041Z,12.60
2018-03-14T14:03:40.408Z,12.65
2018-03-14T14:06:08.767Z,12.87
2018-03-14T14:08:37.179Z,13.15
2018-03-14T14:11:05.564Z,13.05
2018-03-14T14:13:33.934Z,13.30
2018-03-14T14:16:02.701Z,13.31
2018-03-14T14:18:31.084Z,13.20
2018-03-14T14:20:59.444Z,13.10
2018-03-14T14:23:27.853Z,13.03
2018-03-14T14:25:56.223Z,13.08
2018-03-14T14:28:24.612Z,13.10
2018-03-14T14:30:52.970Z,12.88
2018-03-14T14:33:21.351Z,13.04
2018-03-14T14:35:49.727Z,13.26
2018-03-14T14:38:18.086Z,12.75
2018-03-14T14:40:46.439Z,12.53
2018-03-14T14:43:15.301Z,13.00
2018-03-14T14:45:43.679Z,12.62
2018-03-14T14:48:12.080Z,12.50
2018-03-14T14:50:40.828Z,12.76
2018-03-14T14:53:09.201Z,13.09
2018-03-14T14:55:37.556Z,13.10
2018-03-14T14:58:05.922Z,12.89
2018-03-14T15:00:34.284Z,13.15
2018-03-14T15:03:03.036Z,13.29
2018-03-14T15:05:31.402Z,13.47
2018-03-14T15:07:59.768Z,13.05
2018-03-14T15:10:28.127Z,12.66
2018-03-14T15:12:56.502Z,13.16
2018-03-14T15:15:24.872Z,12.25
2018-03-14T15:17:53.660Z,12.37
2018-03-14T15:20:22.403Z,12.25
2018-03-14T15:22:50.772Z,12.61
2018-03-14T15:25:19.177Z,13.14
2018-03-14T15:27:47.624Z,12.63
2018-03-14T15:30:15.958Z,12.95
2018-03-14T15:32:44.720Z,12.45
2018-03-14T15:35:13.072Z,12.82
2018-03-14T15:37:41.438Z,12.35
2018-03-14T15:40:09.787Z,12.40
2018-03-14T15:42:38.560Z,12.35
2018-03-14T15:45:07.426Z,12.24
2018-03-14T15:47:35.799Z,11.70
2018-03-14T15:50:04.152Z,11.62
2018-03-14T15:52:32.511Z,12.21
2018-03-14T15:55:00.863Z,12.08
2018-03-14T15:57:29.234Z,12.12
2018-03-14T15:59:57.707Z,11.90
2018-03-14T16:02:26.165Z,11.80
2018-03-14T16:04:54.543Z,11.49
2018-03-14T16:07:22.903Z,11.56
2018-03-14T16:09:51.303Z,11.04
2018-03-14T16:12:19.687Z,11.73
2018-03-14T16:14:48.043Z,11.24
2018-03-14T16:17:16.568Z,10.67
2018-03-14T16:19:45.342Z,10.92
2018-03-14T16:22:13.737Z,10.26
2018-03-14T16:24:42.099Z,9.75
2018-03-14T16:27:10.484Z,10.28
2018-03-14T16:29:38.846Z,10.13
2018-03-14T16:32:07.207Z,10.53
2018-03-14T16:34:35.559Z,10.52
2018-03-14T16:37:03.921Z,10.41
2018-03-14T16:39:32.693Z,10.40
2018-03-14T16:42:01.047Z,10.35
2018-03-14T16:44:29.730Z,9.85
2018-03-14T16:46:58.530Z,10.35
2018-03-14T16:49:26.916Z,10.55
2018-03-14T16:51:55.277Z,10.06
2018-03-14T16:54:23.633Z,9.78
2018-03-14T16:56:51.993Z,9.57
2018-03-14T16:59:20.346Z,9.97
2018-03-14T17:01:48.705Z,9.78
2018-03-14T17:04:17.066Z,9.48
2018-03-14T17:06:45.415Z,9.18
2018-03-14T17:09:13.778Z,9.21
2018-03-14T17:11:42.538Z,9.31
2018-03-14T17:14:10.891Z,9.42
2018-03-14T17:16:39.268Z,9.26
2018-03-14T17:19:07.632Z,9.68
2018-03-14T17:21:35.996Z,10.23
2018-03-14T17:24:04.342Z,10.25
2018-03-14T17:26:33.136Z,10.16
2018-03-14T17:29:01.890Z,10.35
2018-03-14T17:31:30.279Z,10.79
2018-03-14T17:33:58.632Z,9.44
2018-03-14T17:36:27.049Z,9.19
2018-03-14T17:38:55.364Z,8.89
2018-03-14T17:41:23.712Z,9.11
2018-03-14T17:43:52.457Z,9.57
2018-03-14T17:46:20.823Z,9.61
2018-03-14T17:48:49.171Z,9.48
2018-03-14T17:51:17.925Z,9.65
2018-03-14T17:53:46.293Z,9.72
2018-03-14T17:56:14.677Z,9.98
2018-03-14T17:58:43.046Z,10.24
2018-03-14T18:01:11.400Z,10.65
2018-03-14T18:03:39.763Z,10.41
2018-03-14T18:06:08.156Z,10.30
2018-03-14T18:08:36.519Z,10.30
2018-03-14T18:11:04.893Z,9.81
2018-03-14T18:13:33.235Z,9.80
2018-03-14T18:16:01.631Z,9.82
2018-03-14T18:18:30.405Z,9.75
2018-03-14T18:20:58.866Z,9.58
2018-03-14T18:23:27.248Z,8.73
2018-03-14T18:25:55.616Z,8.77
2018-03-14T18:28:23.963Z,8.57
2018-03-14T18:30:52.317Z,8.74
2018-03-14T18:33:21.187Z,9.08
2018-03-14T18:35:49.545Z,9.38
2018-03-14T18:38:17.899Z,9.36
2018-03-14T18:40:46.303Z,8.89
2018-03-14T18:43:14.684Z,8.94
2018-03-14T18:45:43.054Z,9.08
2018-03-14T18:48:11.427Z,9.39
2018-03-14T18:50:39.796Z,9.30
2018-03-14T18:53:08.152Z,9.28
2018-03-14T18:55:36.605Z,9.55
2018-03-14T18:58:04.967Z,9.39
2018-03-14T19:00:33.353Z,9.10
2018-03-14T19:03:03.363Z,9.11
2018-03-14T19:05:31.758Z,9.06
2018-03-14T19:08:00.564Z,9.51
2018-03-14T19:10:28.904Z,9.42
2018-03-14T19:12:57.260Z,9.48
2018-03-14T19:15:25.634Z,9.46
2018-03-14T19:17:53.974Z,9.71
2018-03-14T19:20:22.744Z,9.96
2018-03-14T19:22:51.095Z,9.52
2018-03-14T19:25:19.465Z,9.77
2018-03-14T19:27:47.857Z,9.91
2018-03-14T19:30:16.339Z,9.94
2018-03-14T19:32:44.705Z,9.77
2018-03-14T19:35:13.117Z,9.58
2018-03-14T19:37:41.489Z,9.65
2018-03-14T19:40:09.864Z,9.09
2018-03-14T19:42:38.212Z,9.36
2018-03-14T19:45:06.578Z,9.75
2018-03-14T19:47:34.948Z,9.40
2018-03-14T19:50:03.329Z,9.65
2018-03-14T19:52:32.650Z,9.73
2018-03-14T19:55:01.012Z,9.54
2018-03-14T19:57:29.354Z,9.76
2018-03-14T19:59:57.724Z,9.83
2018-03-14T20:02:26.134Z,10.19
2018-03-14T20:04:54.645Z,9.94
2018-03-14T20:07:22.999Z,9.96
2018-03-14T20:09:51.361Z,10.07
2018-03-14T20:12:20.140Z,10.38
2018-03-14T20:14:48.575Z,9.72
2018-03-14T20:17:16.945Z,9.96
2018-03-14T20:19:45.315Z,9.41
2018-03-14T20:22:14.013Z,9.42
2018-03-14T20:24:42.475Z,9.91
2018-03-14T20:27:10.900Z,9.39
2018-03-14T20:29:39.260Z,9.33
2018-03-14T20:32:07.690Z,9.53
2018-03-14T20:34:36.035Z,9.27
2018-03-14T20:37:04.427Z,9.17
2018-03-14T20:39:32.787Z,9.41
2018-03-14T20:42:06.092Z,9.94
2018-03-14T20:44:34.448Z,10.04
2018-03-14T20:47:02.835Z,9.80
2018-03-14T20:49:31.196Z,9.66
2018-03-14T20:51:59.591Z,9.81
2018-03-14T20:54:28.058Z,10.33
2018-03-14T20:56:56.419Z,9.93
2018-03-14T20:59:24.839Z,10.24
2018-03-14T21:01:53.231Z,10.33
2018-03-14T21:04:21.615Z,9.89
2018-03-14T21:06:49.970Z,9.61
2018-03-14T21:09:18.327Z,9.63
2018-03-14T21:11:46.689Z,9.39
2018-03-14T21:14:15.132Z,9.53
2018-03-14T21:16:43.496Z,9.70
2018-03-14T21:19:11.871Z,9.44
2018-03-14T21:21:40.233Z,9.52
2018-03-14T21:24:08.647Z,9.83
2018-03-14T21:26:37.010Z,10.00
2018-03-14T21:29:05.369Z,9.79
2018-03-14T21:31:33.725Z,9.98
2018-03-14T21:34:02.096Z,10.03
2018-03-14T21:36:30.482Z,10.14
2018-03-14T21:38:58.904Z,9.76
2018-03-14T21:41:27.244Z,9.16
2018-03-14T21:43:55.619Z,9.18
2018-03-14T21:46:24.029Z,9.41
2018-03-14T21:48:52.398Z,8.95
2018-03-14T21:51:20.803Z,8.99
2018-03-14T21:53:49.154Z,9.10
2018-03-14T21:56:17.517Z,8.87
2018-03-14T21:58:45.876Z,8.83
2018-03-14T22:01:14.635Z,9.03
2018-03-14T22:03:42.980Z,8.94
2018-03-14T22:06:11.382Z,9.10
2018-03-14T22:08:39.786Z,9.05
2018-03-14T22:11:09.041Z,8.94
2018-03-14T22:13:37.400Z,8.97
2018-03-14T22:16:05.772Z,9.05
2018-03-14T22:18:34.143Z,8.83
2018-03-14T22:21:02.513Z,8.97
2018-03-14T22:23:31.247Z,9.37
2018-03-14T22:25:59.643Z,9.32
2018-03-14T22:28:28.034Z,8.84
2018-03-14T22:30:56.402Z,9.27
2018-03-14T22:33:25.191Z,9.33
2018-03-14T22:35:53.640Z,9.20
2018-03-14T22:38:21.986Z,9.13
2018-03-14T22:40:50.743Z,8.87
2018-03-14T22:43:19.088Z,8.76
2018-03-14T22:45:47.452Z,8.84
2018-03-14T22:48:15.828Z,8.91
2018-03-14T22:50:44.186Z,8.64
2018-03-14T22:53:12.942Z,9.19
2018-03-14T22:55:41.401Z,9.42
2018-03-14T22:58:09.827Z,9.36
2018-03-14T23:00:38.147Z,9.56
2018-03-14T23:03:06.822Z,9.67
2018-03-14T23:05:35.266Z,9.81
2018-03-14T23:08:03.592Z,9.76
2018-03-14T23:10:31.972Z,9.60
2018-03-14T23:13:00.352Z,9.31
2018-03-14T23:15:29.717Z,9.60
2018-03-14T23:17:58.548Z,9.55
2018-03-14T23:20:27.015Z,9.48
2018-03-14T23:22:55.491Z,9.00
2018-03-14T23:25:23.888Z,9.32
2018-03-14T23:27:52.240Z,9.86
2018-03-14T23:30:20.606Z,9.49
2018-03-14T23:32:49.351Z,9.45
2018-03-14T23:35:17.711Z,9.52
2018-03-14T23:37:46.093Z,9.42
2018-03-14T23:40:14.464Z,9.23
2018-03-14T23:42:42.924Z,9.47
2018-03-14T23:45:11.301Z,9.16
2018-03-14T23:47:39.643Z,9.00
2018-03-14T23:50:09.098Z,9.09
2018-03-14T23:52:37.480Z,8.83
2018-03-14T23:55:05.852Z,9.04
2018-03-14T23:57:34.201Z,8.62
